ACA112 CYYZ-CYWG
Flight info
| Callsign | ACA112 |
|---|---|
| Flight time | 2h 5m |
| Altitude | 40000 |
| Route | AVSEP7 MUSIT DCT SSM DCT AGLIN DCT GOVIT NORAK6 |
| Aircraft | A343/H-SDE2E3FGHIJ4J5M1RWXY/LB1D1 |
Departure
| Time | 2026-05-05 15:51 |
|---|---|
| Airport | Toronto Pearson International Airport (CYYZ) |
Arrival
| Time | 2026-05-05 17:57 |
|---|---|
| Airport | Winnipeg / James Armstrong Richardson International Airport (CYWG) |
| Time | Latitude | Longitude | Altitude | Speed | Heading |
|---|---|---|---|---|---|
| 2026-05-05 15:12 | 43.67720 | -79.60972 | 575 ft | 0 kts | 245° |
| 2026-05-05 15:12 | 43.67720 | -79.60971 | 575 ft | 0 kts | 245° |
| 2026-05-05 15:16 | 43.67721 | -79.60971 | 575 ft | 0 kts | 245° |
| 2026-05-05 15:22 | 43.67721 | -79.60970 | 575 ft | 0 kts | 245° |
| 2026-05-05 15:30 | 43.67721 | -79.60969 | 574 ft | 0 kts | 245° |
| 2026-05-05 15:39 | 43.67721 | -79.60968 | 565 ft | 0 kts | 245° |
| 2026-05-05 15:42 | 43.67722 | -79.60967 | 565 ft | 2 kts | 245° |
| 2026-05-05 15:42 | 43.67733 | -79.60935 | 572 ft | 4 kts | 245° |
| 2026-05-05 15:42 | 43.67744 | -79.60902 | 572 ft | 4 kts | 245° |
| 2026-05-05 15:42 | 43.67756 | -79.60868 | 565 ft | 4 kts | 245° |
| 2026-05-05 15:43 | 43.67764 | -79.60844 | 570 ft | 0 kts | 245° |
| 2026-05-05 15:45 | 43.67762 | -79.60846 | 570 ft | 0 kts | 237° |
| 2026-05-05 15:45 | 43.67759 | -79.60847 | 569 ft | 1 kts | 215° |
| 2026-05-05 15:45 | 43.67752 | -79.60844 | 575 ft | 1 kts | 175° |
| 2026-05-05 15:46 | 43.67744 | -79.60835 | 575 ft | 3 kts | 147° |
| 2026-05-05 15:46 | 43.67724 | -79.60813 | 575 ft | 0 kts | 139° |
| 2026-05-05 15:47 | 43.67719 | -79.60807 | 575 ft | 4 kts | 139° |
| 2026-05-05 15:47 | 43.67686 | -79.60735 | 573 ft | 13 kts | 99° |
| 2026-05-05 15:47 | 43.67640 | -79.60644 | 575 ft | 12 kts | 168° |
| 2026-05-05 15:48 | 43.67559 | -79.60704 | 574 ft | 16 kts | 224° |
| 2026-05-05 15:48 | 43.67482 | -79.60816 | 572 ft | 17 kts | 228° |
| 2026-05-05 15:48 | 43.67409 | -79.60941 | 568 ft | 17 kts | 233° |
| 2026-05-05 15:48 | 43.67338 | -79.61072 | 574 ft | 17 kts | 233° |
| 2026-05-05 15:49 | 43.67267 | -79.61203 | 572 ft | 17 kts | 233° |
| 2026-05-05 15:49 | 43.67204 | -79.61321 | 576 ft | 14 kts | 233° |
| 2026-05-05 15:49 | 43.67144 | -79.61409 | 579 ft | 13 kts | 224° |
| 2026-05-05 15:49 | 43.67134 | -79.61513 | 572 ft | 11 kts | 296° |
| 2026-05-05 15:50 | 43.67153 | -79.61545 | 572 ft | 1 kts | 309° |
| 2026-05-05 15:50 | 43.67194 | -79.61610 | 579 ft | 30 kts | 313° |
| 2026-05-05 15:50 | 43.67488 | -79.62005 | 583 ft | 87 kts | 318° |
| 2026-05-05 15:50 | 43.68050 | -79.62721 | 579 ft | 134 kts | 316° |
| 2026-05-05 15:51 | 43.68828 | -79.63717 | 685 ft | 164 kts | 313° |
| 2026-05-05 15:51 | 43.69689 | -79.64784 | 1272 ft | 169 kts | 313° |
| 2026-05-05 15:51 | 43.70593 | -79.65894 | 1840 ft | 178 kts | 314° |
| 2026-05-05 15:51 | 43.71584 | -79.67130 | 2253 ft | 202 kts | 313° |
| 2026-05-05 15:52 | 43.72841 | -79.68308 | 2717 ft | 234 kts | 329° |
| 2026-05-05 15:52 | 43.74326 | -79.69400 | 3475 ft | 245 kts | 326° |
| 2026-05-05 15:52 | 43.75810 | -79.70579 | 4435 ft | 251 kts | 323° |
| 2026-05-05 15:52 | 43.77339 | -79.71819 | 5285 ft | 260 kts | 322° |
| 2026-05-05 15:53 | 43.78889 | -79.73073 | 6151 ft | 263 kts | 322° |
| 2026-05-05 15:53 | 43.80452 | -79.74382 | 7100 ft | 264 kts | 316° |
| 2026-05-05 15:53 | 43.81777 | -79.76067 | 8032 ft | 255 kts | 299° |
| 2026-05-05 15:53 | 43.82584 | -79.78174 | 8980 ft | 244 kts | 278° |
| 2026-05-05 15:54 | 43.82666 | -79.80435 | 9944 ft | 231 kts | 251° |
| 2026-05-05 15:54 | 43.81978 | -79.82442 | 10674 ft | 238 kts | 239° |
| 2026-05-05 15:54 | 43.80985 | -79.84387 | 11034 ft | 258 kts | 233° |
| 2026-05-05 15:54 | 43.79841 | -79.86409 | 11448 ft | 274 kts | 233° |
| 2026-05-05 15:55 | 43.78681 | -79.88507 | 12091 ft | 281 kts | 235° |
| 2026-05-05 15:55 | 43.77724 | -79.90890 | 12776 ft | 287 kts | 245° |
| 2026-05-05 15:55 | 43.77057 | -79.93538 | 13368 ft | 299 kts | 257° |
| 2026-05-05 15:55 | 43.77134 | -79.96465 | 14011 ft | 316 kts | 280° |
| 2026-05-05 15:56 | 43.78228 | -79.99185 | 14742 ft | 338 kts | 304° |
| 2026-05-05 15:56 | 43.80184 | -80.01162 | 15538 ft | 363 kts | 326° |
| 2026-05-05 15:56 | 43.82553 | -80.02441 | 16265 ft | 370 kts | 329° |
| 2026-05-05 15:56 | 43.84906 | -80.03871 | 16961 ft | 368 kts | 324° |
| 2026-05-05 15:57 | 43.87163 | -80.05545 | 17684 ft | 368 kts | 321° |
| 2026-05-05 15:57 | 43.89361 | -80.07378 | 18335 ft | 369 kts | 319° |
| 2026-05-05 15:57 | 43.91494 | -80.09281 | 18992 ft | 369 kts | 317° |
| 2026-05-05 15:57 | 43.93484 | -80.11462 | 19658 ft | 359 kts | 306° |
| 2026-05-05 15:58 | 43.95106 | -80.14046 | 20329 ft | 353 kts | 299° |
| 2026-05-05 15:58 | 43.96599 | -80.16749 | 21011 ft | 353 kts | 298° |
| 2026-05-05 15:58 | 43.98076 | -80.19478 | 21687 ft | 354 kts | 298° |
| 2026-05-05 15:58 | 43.99553 | -80.22216 | 22357 ft | 355 kts | 297° |
| 2026-05-05 15:59 | 44.01038 | -80.24965 | 23074 ft | 355 kts | 297° |
| 2026-05-05 15:59 | 44.02515 | -80.27699 | 23692 ft | 354 kts | 297° |
| 2026-05-05 15:59 | 44.03997 | -80.30447 | 24153 ft | 357 kts | 297° |
| 2026-05-05 15:59 | 44.05471 | -80.33186 | 24609 ft | 360 kts | 297° |
| 2026-05-05 16:00 | 44.06974 | -80.35979 | 25084 ft | 362 kts | 297° |
| 2026-05-05 16:00 | 44.08484 | -80.38784 | 25541 ft | 364 kts | 297° |
| 2026-05-05 16:00 | 44.10003 | -80.41609 | 26001 ft | 365 kts | 297° |
| 2026-05-05 16:00 | 44.11524 | -80.44440 | 26441 ft | 367 kts | 297° |
| 2026-05-05 16:01 | 44.13060 | -80.47293 | 26878 ft | 370 kts | 298° |
| 2026-05-05 16:01 | 44.14733 | -80.50067 | 27305 ft | 377 kts | 302° |
| 2026-05-05 16:01 | 44.16526 | -80.52767 | 27718 ft | 381 kts | 303° |
| 2026-05-05 16:01 | 44.18341 | -80.55458 | 28239 ft | 381 kts | 303° |
| 2026-05-05 16:02 | 44.20128 | -80.58105 | 28743 ft | 380 kts | 303° |
| 2026-05-05 16:02 | 44.21940 | -80.60799 | 29154 ft | 382 kts | 303° |
| 2026-05-05 16:02 | 44.23758 | -80.63507 | 29553 ft | 385 kts | 303° |
| 2026-05-05 16:02 | 44.25594 | -80.66248 | 29843 ft | 388 kts | 303° |
| 2026-05-05 16:03 | 44.27441 | -80.69007 | 30185 ft | 389 kts | 303° |
| 2026-05-05 16:03 | 44.29288 | -80.71767 | 30543 ft | 390 kts | 303° |
| 2026-05-05 16:03 | 44.31141 | -80.74539 | 30898 ft | 390 kts | 303° |
| 2026-05-05 16:03 | 44.32994 | -80.77313 | 31239 ft | 391 kts | 303° |
| 2026-05-05 16:04 | 44.34825 | -80.80058 | 31553 ft | 392 kts | 303° |
| 2026-05-05 16:04 | 44.36681 | -80.82845 | 31869 ft | 393 kts | 303° |
| 2026-05-05 16:04 | 44.38540 | -80.85636 | 32295 ft | 391 kts | 303° |
| 2026-05-05 16:04 | 44.40382 | -80.88402 | 32800 ft | 387 kts | 303° |
| 2026-05-05 16:05 | 44.42209 | -80.91148 | 33308 ft | 384 kts | 303° |
| 2026-05-05 16:05 | 44.44020 | -80.93876 | 33688 ft | 383 kts | 302° |
| 2026-05-05 16:05 | 44.45831 | -80.96610 | 33969 ft | 383 kts | 302° |
| 2026-05-05 16:05 | 44.47644 | -80.99354 | 34149 ft | 386 kts | 302° |
| 2026-05-05 16:06 | 44.49470 | -81.02119 | 34334 ft | 388 kts | 302° |
| 2026-05-05 16:06 | 44.51307 | -81.04902 | 34525 ft | 390 kts | 302° |
| 2026-05-05 16:06 | 44.53129 | -81.07662 | 34718 ft | 392 kts | 303° |
| 2026-05-05 16:06 | 44.54982 | -81.10471 | 34927 ft | 394 kts | 303° |
| 2026-05-05 16:07 | 44.56844 | -81.13297 | 35113 ft | 395 kts | 303° |
| 2026-05-05 16:07 | 44.58714 | -81.16138 | 35304 ft | 397 kts | 303° |
| 2026-05-05 16:07 | 44.60591 | -81.18993 | 35492 ft | 399 kts | 303° |
| 2026-05-05 16:07 | 44.62476 | -81.21862 | 35683 ft | 401 kts | 303° |
| 2026-05-05 16:08 | 44.64372 | -81.24751 | 35868 ft | 403 kts | 303° |
| 2026-05-05 16:08 | 44.66247 | -81.27610 | 36067 ft | 404 kts | 303° |
| 2026-05-05 16:08 | 44.68155 | -81.30524 | 36272 ft | 406 kts | 303° |
| 2026-05-05 16:08 | 44.70073 | -81.33456 | 36463 ft | 408 kts | 303° |
| 2026-05-05 16:09 | 44.71997 | -81.36398 | 36642 ft | 410 kts | 303° |
| 2026-05-05 16:09 | 44.73929 | -81.39356 | 36826 ft | 411 kts | 303° |
| 2026-05-05 16:09 | 44.75867 | -81.42328 | 37001 ft | 413 kts | 304° |
| 2026-05-05 16:09 | 44.77810 | -81.45310 | 37190 ft | 414 kts | 304° |
| 2026-05-05 16:10 | 44.79759 | -81.48306 | 37377 ft | 416 kts | 304° |
| 2026-05-05 16:10 | 44.81713 | -81.51312 | 37572 ft | 417 kts | 304° |
| 2026-05-05 16:10 | 44.83647 | -81.54289 | 37739 ft | 418 kts | 304° |
| 2026-05-05 16:10 | 44.85613 | -81.57320 | 37900 ft | 419 kts | 304° |
| 2026-05-05 16:11 | 44.87583 | -81.60360 | 38091 ft | 421 kts | 304° |
| 2026-05-05 16:11 | 44.93512 | -81.69532 | 38583 ft | 424 kts | 304° |
| 2026-05-05 16:12 | 44.95499 | -81.72612 | 38736 ft | 424 kts | 304° |
| 2026-05-05 16:12 | 44.99472 | -81.78781 | 39041 ft | 424 kts | 305° |
| 2026-05-05 16:13 | 45.05403 | -81.88012 | 39470 ft | 425 kts | 305° |
| 2026-05-05 16:13 | 45.07389 | -81.91110 | 39613 ft | 425 kts | 305° |
| 2026-05-05 16:13 | 45.09374 | -81.94210 | 39745 ft | 425 kts | 305° |
| 2026-05-05 16:14 | 45.17380 | -82.06751 | 39791 ft | 432 kts | 305° |
| 2026-05-05 16:15 | 45.25409 | -82.19380 | 39786 ft | 431 kts | 305° |
| 2026-05-05 16:16 | 45.33416 | -82.32035 | 39791 ft | 431 kts | 306° |
| 2026-05-05 16:17 | 45.39410 | -82.41547 | 39774 ft | 433 kts | 306° |
| 2026-05-05 16:18 | 45.44474 | -82.50311 | 39777 ft | 429 kts | 301° |
| 2026-05-05 16:19 | 45.49912 | -82.60449 | 39785 ft | 430 kts | 302° |
| 2026-05-05 16:19 | 45.55392 | -82.70490 | 39768 ft | 430 kts | 302° |
| 2026-05-05 16:20 | 45.62774 | -82.83970 | 39774 ft | 431 kts | 302° |
| 2026-05-05 16:22 | 45.71951 | -83.00828 | 39766 ft | 431 kts | 302° |
| 2026-05-05 16:23 | 45.79296 | -83.14397 | 39775 ft | 432 kts | 302° |
| 2026-05-05 16:23 | 45.84783 | -83.24574 | 39774 ft | 432 kts | 302° |
| 2026-05-05 16:24 | 45.88452 | -83.31400 | 39780 ft | 432 kts | 302° |
| 2026-05-05 16:25 | 45.93926 | -83.41614 | 39773 ft | 429 kts | 302° |
| 2026-05-05 16:25 | 45.99354 | -83.51784 | 39786 ft | 430 kts | 302° |
| 2026-05-05 16:26 | 46.06612 | -83.65442 | 39768 ft | 429 kts | 302° |
| 2026-05-05 16:27 | 46.10229 | -83.72270 | 39766 ft | 428 kts | 302° |
| 2026-05-05 16:27 | 46.13813 | -83.79055 | 39766 ft | 428 kts | 302° |
| 2026-05-05 16:28 | 46.17416 | -83.85891 | 39763 ft | 428 kts | 302° |
| 2026-05-05 16:28 | 46.21013 | -83.92733 | 39789 ft | 428 kts | 301° |
| 2026-05-05 16:29 | 46.24615 | -83.99604 | 39747 ft | 430 kts | 301° |
| 2026-05-05 16:29 | 46.28210 | -84.06475 | 39760 ft | 432 kts | 301° |
| 2026-05-05 16:30 | 46.31830 | -84.13410 | 39760 ft | 432 kts | 301° |
| 2026-05-05 16:30 | 46.35452 | -84.20365 | 39755 ft | 432 kts | 301° |
| 2026-05-05 16:31 | 46.39067 | -84.27325 | 39742 ft | 432 kts | 301° |
| 2026-05-05 16:31 | 46.42390 | -84.34518 | 39749 ft | 428 kts | 296° |
| 2026-05-05 16:32 | 46.45369 | -84.41935 | 39769 ft | 430 kts | 295° |
| 2026-05-05 16:32 | 46.48334 | -84.49507 | 39769 ft | 432 kts | 295° |
| 2026-05-05 16:33 | 46.51296 | -84.57099 | 39767 ft | 432 kts | 295° |
| 2026-05-05 16:33 | 46.54263 | -84.64700 | 39766 ft | 432 kts | 295° |
| 2026-05-05 16:34 | 46.57206 | -84.72250 | 39768 ft | 432 kts | 295° |
| 2026-05-05 16:34 | 46.60165 | -84.79865 | 39776 ft | 433 kts | 295° |
| 2026-05-05 16:35 | 46.63122 | -84.87493 | 39783 ft | 433 kts | 295° |
| 2026-05-05 16:35 | 46.66074 | -84.95130 | 39787 ft | 433 kts | 295° |
| 2026-05-05 16:36 | 46.69000 | -85.02723 | 39796 ft | 433 kts | 295° |
| 2026-05-05 16:36 | 46.71940 | -85.10372 | 39795 ft | 433 kts | 295° |
| 2026-05-05 16:37 | 46.74875 | -85.18032 | 39798 ft | 432 kts | 295° |
| 2026-05-05 16:37 | 46.77796 | -85.25675 | 39797 ft | 431 kts | 295° |
| 2026-05-05 16:38 | 46.80692 | -85.33274 | 39799 ft | 431 kts | 295° |
| 2026-05-05 16:38 | 46.83604 | -85.40937 | 39799 ft | 431 kts | 295° |
| 2026-05-05 16:39 | 46.86511 | -85.48606 | 39799 ft | 431 kts | 295° |
| 2026-05-05 16:39 | 46.89413 | -85.56286 | 39809 ft | 432 kts | 295° |
| 2026-05-05 16:40 | 46.92277 | -85.63887 | 39796 ft | 431 kts | 295° |
| 2026-05-05 16:40 | 46.95162 | -85.71565 | 39796 ft | 430 kts | 295° |
| 2026-05-05 16:41 | 46.98037 | -85.79239 | 39799 ft | 430 kts | 295° |
| 2026-05-05 16:41 | 47.00907 | -85.86924 | 39799 ft | 430 kts | 295° |
| 2026-05-05 16:42 | 47.03752 | -85.94563 | 39798 ft | 429 kts | 295° |
| 2026-05-05 16:42 | 47.06606 | -86.02249 | 39799 ft | 429 kts | 295° |
| 2026-05-05 16:43 | 47.09455 | -86.09943 | 39793 ft | 429 kts | 295° |
| 2026-05-05 16:43 | 47.12295 | -86.17635 | 39807 ft | 429 kts | 295° |
| 2026-05-05 16:44 | 47.15123 | -86.25316 | 39797 ft | 431 kts | 295° |
| 2026-05-05 16:44 | 47.17970 | -86.33070 | 39790 ft | 431 kts | 295° |
| 2026-05-05 16:45 | 47.20812 | -86.40830 | 39788 ft | 431 kts | 295° |
| 2026-05-05 16:45 | 47.23647 | -86.48597 | 39792 ft | 431 kts | 294° |
| 2026-05-05 16:46 | 47.26455 | -86.56311 | 39787 ft | 431 kts | 294° |
| 2026-05-05 16:46 | 47.29279 | -86.64093 | 39788 ft | 431 kts | 294° |
| 2026-05-05 16:47 | 47.32095 | -86.71877 | 39786 ft | 430 kts | 294° |
| 2026-05-05 16:47 | 47.34907 | -86.79669 | 39799 ft | 431 kts | 294° |
| 2026-05-05 16:48 | 47.37701 | -86.87438 | 39788 ft | 433 kts | 294° |
| 2026-05-05 16:48 | 47.40519 | -86.95297 | 39787 ft | 433 kts | 294° |
| 2026-05-05 16:49 | 47.43334 | -87.03166 | 39786 ft | 433 kts | 294° |
| 2026-05-05 16:49 | 47.46141 | -87.11041 | 39784 ft | 433 kts | 294° |
| 2026-05-05 16:50 | 47.48926 | -87.18874 | 39779 ft | 434 kts | 294° |
| 2026-05-05 16:50 | 47.51727 | -87.26778 | 39779 ft | 433 kts | 294° |
| 2026-05-05 16:51 | 47.54519 | -87.34679 | 39774 ft | 433 kts | 294° |
| 2026-05-05 16:51 | 47.57308 | -87.42595 | 39785 ft | 434 kts | 294° |
| 2026-05-05 16:52 | 47.60098 | -87.50543 | 39773 ft | 435 kts | 294° |
| 2026-05-05 16:52 | 47.62869 | -87.58457 | 39759 ft | 436 kts | 294° |
| 2026-05-05 16:53 | 47.65658 | -87.66444 | 39774 ft | 436 kts | 294° |
| 2026-05-05 16:53 | 47.68439 | -87.74435 | 39763 ft | 436 kts | 294° |
| 2026-05-05 16:54 | 47.71217 | -87.82438 | 39779 ft | 436 kts | 294° |
| 2026-05-05 16:54 | 47.73967 | -87.90386 | 39779 ft | 436 kts | 294° |
| 2026-05-05 16:55 | 47.76733 | -87.98408 | 39770 ft | 436 kts | 294° |
| 2026-05-05 16:55 | 47.79493 | -88.06435 | 39779 ft | 436 kts | 294° |
| 2026-05-05 16:56 | 47.82257 | -88.14501 | 39768 ft | 438 kts | 294° |
| 2026-05-05 16:56 | 47.85018 | -88.22584 | 39767 ft | 438 kts | 294° |
| 2026-05-05 16:57 | 47.87760 | -88.30632 | 39772 ft | 438 kts | 294° |
| 2026-05-05 16:57 | 47.90510 | -88.38735 | 39767 ft | 438 kts | 294° |
| 2026-05-05 16:58 | 47.93257 | -88.46854 | 39764 ft | 438 kts | 294° |
| 2026-05-05 16:58 | 47.95978 | -88.54920 | 39765 ft | 438 kts | 294° |
| 2026-05-05 16:59 | 47.98711 | -88.63044 | 39767 ft | 438 kts | 294° |
| 2026-05-05 16:59 | 48.01440 | -88.71184 | 39775 ft | 439 kts | 294° |
| 2026-05-05 17:00 | 48.04172 | -88.79359 | 39765 ft | 440 kts | 294° |
| 2026-05-05 17:00 | 48.06883 | -88.87496 | 39765 ft | 440 kts | 294° |
| 2026-05-05 17:01 | 48.09606 | -88.95695 | 39763 ft | 440 kts | 294° |
| 2026-05-05 17:01 | 48.12323 | -89.03903 | 39765 ft | 440 kts | 294° |
| 2026-05-05 17:02 | 48.15036 | -89.12123 | 39768 ft | 440 kts | 294° |
| 2026-05-05 17:02 | 48.17740 | -89.20344 | 39771 ft | 440 kts | 294° |
| 2026-05-05 17:03 | 48.20417 | -89.28510 | 39772 ft | 439 kts | 294° |
| 2026-05-05 17:03 | 48.23104 | -89.36735 | 39787 ft | 440 kts | 294° |
| 2026-05-05 17:04 | 48.25639 | -89.45089 | 39778 ft | 440 kts | 289° |
| 2026-05-05 17:04 | 48.27719 | -89.53727 | 39783 ft | 440 kts | 288° |
| 2026-05-05 17:05 | 48.29745 | -89.62334 | 39787 ft | 440 kts | 288° |
| 2026-05-05 17:05 | 48.31770 | -89.71003 | 39787 ft | 440 kts | 288° |
| 2026-05-05 17:06 | 48.33788 | -89.79685 | 39795 ft | 440 kts | 288° |
| 2026-05-05 17:06 | 48.35801 | -89.88380 | 39799 ft | 440 kts | 288° |
| 2026-05-05 17:07 | 48.37805 | -89.97074 | 39795 ft | 440 kts | 288° |
| 2026-05-05 17:07 | 48.39789 | -90.05716 | 39792 ft | 440 kts | 288° |
| 2026-05-05 17:08 | 48.41777 | -90.14411 | 39797 ft | 439 kts | 288° |
| 2026-05-05 17:08 | 48.43756 | -90.23102 | 39814 ft | 439 kts | 288° |
| 2026-05-05 17:09 | 48.45734 | -90.31827 | 39802 ft | 441 kts | 288° |
| 2026-05-05 17:09 | 48.47701 | -90.40536 | 39797 ft | 442 kts | 288° |
| 2026-05-05 17:10 | 48.49676 | -90.49314 | 39795 ft | 442 kts | 287° |
| 2026-05-05 17:10 | 48.51643 | -90.58098 | 39800 ft | 442 kts | 287° |
| 2026-05-05 17:11 | 48.53605 | -90.66894 | 39796 ft | 442 kts | 287° |
| 2026-05-05 17:11 | 48.55547 | -90.75637 | 39808 ft | 442 kts | 287° |
| 2026-05-05 17:12 | 48.57495 | -90.84447 | 39802 ft | 442 kts | 287° |
| 2026-05-05 17:12 | 48.59436 | -90.93262 | 39809 ft | 443 kts | 287° |
| 2026-05-05 17:13 | 48.61375 | -91.02103 | 39805 ft | 443 kts | 287° |
| 2026-05-05 17:13 | 48.63295 | -91.10895 | 39819 ft | 443 kts | 287° |
| 2026-05-05 17:14 | 48.65220 | -91.19752 | 39822 ft | 444 kts | 287° |
| 2026-05-05 17:14 | 48.67145 | -91.28644 | 39826 ft | 446 kts | 287° |
| 2026-05-05 17:15 | 48.69068 | -91.37562 | 39829 ft | 446 kts | 287° |
| 2026-05-05 17:15 | 48.70972 | -91.46433 | 39837 ft | 446 kts | 287° |
| 2026-05-05 17:16 | 48.72880 | -91.55360 | 39832 ft | 446 kts | 287° |
| 2026-05-05 17:16 | 48.74781 | -91.64292 | 39835 ft | 446 kts | 287° |
| 2026-05-05 17:17 | 48.76676 | -91.73238 | 39828 ft | 446 kts | 287° |
| 2026-05-05 17:17 | 48.78564 | -91.82191 | 39840 ft | 446 kts | 287° |
| 2026-05-05 17:18 | 48.80432 | -91.91089 | 39840 ft | 446 kts | 287° |
| 2026-05-05 17:18 | 48.82305 | -92.00047 | 39848 ft | 446 kts | 287° |
| 2026-05-05 17:19 | 48.84172 | -92.09019 | 39837 ft | 446 kts | 287° |
| 2026-05-05 17:19 | 48.86033 | -92.17999 | 39852 ft | 446 kts | 287° |
| 2026-05-05 17:20 | 48.87874 | -92.26926 | 39846 ft | 446 kts | 287° |
| 2026-05-05 17:20 | 48.89722 | -92.35924 | 39862 ft | 446 kts | 287° |
| 2026-05-05 17:21 | 48.91561 | -92.44924 | 39861 ft | 446 kts | 287° |
| 2026-05-05 17:22 | 48.94310 | -92.58451 | 39866 ft | 446 kts | 287° |
| 2026-05-05 17:22 | 48.96121 | -92.67409 | 39875 ft | 446 kts | 287° |
| 2026-05-05 17:23 | 48.97937 | -92.76439 | 39873 ft | 446 kts | 287° |
| 2026-05-05 17:23 | 48.99747 | -92.85480 | 39880 ft | 446 kts | 286° |
| 2026-05-05 17:24 | 49.01550 | -92.94526 | 39873 ft | 446 kts | 286° |
| 2026-05-05 17:24 | 49.03335 | -93.03523 | 39880 ft | 446 kts | 286° |
| 2026-05-05 17:25 | 49.05124 | -93.12583 | 39886 ft | 448 kts | 287° |
| 2026-05-05 17:25 | 49.06915 | -93.21693 | 39891 ft | 449 kts | 286° |
| 2026-05-05 17:26 | 49.08701 | -93.30823 | 39885 ft | 449 kts | 286° |
| 2026-05-05 17:26 | 49.10468 | -93.39901 | 39882 ft | 449 kts | 286° |
| 2026-05-05 17:27 | 49.12239 | -93.49044 | 39882 ft | 449 kts | 286° |
| 2026-05-05 17:27 | 49.14003 | -93.58189 | 39890 ft | 449 kts | 286° |
| 2026-05-05 17:28 | 49.15749 | -93.67289 | 39889 ft | 449 kts | 286° |
| 2026-05-05 17:28 | 49.17489 | -93.76396 | 39897 ft | 449 kts | 286° |
| 2026-05-05 17:29 | 49.19232 | -93.85570 | 39903 ft | 449 kts | 286° |
| 2026-05-05 17:29 | 49.20969 | -93.94750 | 39811 ft | 449 kts | 286° |
| 2026-05-05 17:29 | 49.21830 | -93.99323 | 39589 ft | 446 kts | 286° |
| 2026-05-05 17:30 | 49.22682 | -94.03853 | 39299 ft | 442 kts | 286° |
| 2026-05-05 17:30 | 49.23528 | -94.08364 | 38852 ft | 442 kts | 286° |
| 2026-05-05 17:30 | 49.24364 | -94.12838 | 38251 ft | 444 kts | 286° |
| 2026-05-05 17:30 | 49.25213 | -94.17386 | 37654 ft | 445 kts | 286° |
| 2026-05-05 17:31 | 49.26061 | -94.21937 | 37083 ft | 445 kts | 286° |
| 2026-05-05 17:31 | 49.26907 | -94.26493 | 36515 ft | 445 kts | 286° |
| 2026-05-05 17:31 | 49.27752 | -94.31056 | 35941 ft | 445 kts | 286° |
| 2026-05-05 17:31 | 49.28597 | -94.35628 | 35287 ft | 447 kts | 286° |
| 2026-05-05 17:32 | 49.29444 | -94.40223 | 34612 ft | 450 kts | 286° |
| 2026-05-05 17:32 | 49.30294 | -94.44848 | 33922 ft | 452 kts | 286° |
| 2026-05-05 17:32 | 49.31148 | -94.49501 | 33111 ft | 454 kts | 286° |
| 2026-05-05 17:32 | 49.31989 | -94.54098 | 32365 ft | 455 kts | 285° |
| 2026-05-05 17:33 | 49.32840 | -94.58764 | 31701 ft | 454 kts | 285° |
| 2026-05-05 17:33 | 49.33683 | -94.63393 | 31200 ft | 448 kts | 285° |
| 2026-05-05 17:33 | 49.34515 | -94.67977 | 30692 ft | 444 kts | 285° |
| 2026-05-05 17:33 | 49.35336 | -94.72510 | 30173 ft | 439 kts | 285° |
| 2026-05-05 17:34 | 49.36147 | -94.77001 | 29596 ft | 435 kts | 285° |
| 2026-05-05 17:34 | 49.36949 | -94.81447 | 29034 ft | 429 kts | 285° |
| 2026-05-05 17:34 | 49.37737 | -94.85833 | 28522 ft | 424 kts | 285° |
| 2026-05-05 17:34 | 49.38503 | -94.90104 | 28012 ft | 418 kts | 285° |
| 2026-05-05 17:35 | 49.39268 | -94.94380 | 27501 ft | 413 kts | 285° |
| 2026-05-05 17:35 | 49.40022 | -94.98605 | 27000 ft | 408 kts | 285° |
| 2026-05-05 17:35 | 49.40767 | -95.02791 | 26506 ft | 404 kts | 285° |
| 2026-05-05 17:35 | 49.41503 | -95.06934 | 25983 ft | 401 kts | 285° |
| 2026-05-05 17:36 | 49.42232 | -95.11049 | 25482 ft | 397 kts | 285° |
| 2026-05-05 17:36 | 49.42954 | -95.15128 | 24981 ft | 394 kts | 285° |
| 2026-05-05 17:36 | 49.43667 | -95.19168 | 24492 ft | 391 kts | 285° |
| 2026-05-05 17:36 | 49.44375 | -95.23190 | 23990 ft | 388 kts | 285° |
| 2026-05-05 17:37 | 49.45065 | -95.27123 | 23501 ft | 386 kts | 285° |
| 2026-05-05 17:37 | 49.45536 | -95.29807 | 23135 ft | 383 kts | 285° |
| 2026-05-05 17:37 | 49.46444 | -95.35002 | 22475 ft | 377 kts | 285° |
| 2026-05-05 17:37 | 49.47117 | -95.38863 | 21994 ft | 372 kts | 286° |
| 2026-05-05 17:38 | 49.47781 | -95.42678 | 21521 ft | 367 kts | 286° |
| 2026-05-05 17:38 | 49.48438 | -95.46456 | 21055 ft | 363 kts | 286° |
| 2026-05-05 17:38 | 49.49085 | -95.50184 | 20583 ft | 360 kts | 286° |
| 2026-05-05 17:38 | 49.49731 | -95.53894 | 20123 ft | 359 kts | 286° |
| 2026-05-05 17:39 | 49.50369 | -95.57592 | 19666 ft | 357 kts | 286° |
| 2026-05-05 17:39 | 49.50992 | -95.61229 | 19219 ft | 355 kts | 286° |
| 2026-05-05 17:39 | 49.51618 | -95.64886 | 18756 ft | 353 kts | 286° |
| 2026-05-05 17:39 | 49.52244 | -95.68527 | 18294 ft | 351 kts | 287° |
| 2026-05-05 17:40 | 49.52869 | -95.72162 | 17799 ft | 350 kts | 287° |
| 2026-05-05 17:40 | 49.53484 | -95.75767 | 17336 ft | 347 kts | 287° |
| 2026-05-05 17:40 | 49.54083 | -95.79336 | 16923 ft | 342 kts | 287° |
| 2026-05-05 17:40 | 49.54816 | -95.82781 | 16595 ft | 335 kts | 293° |
| 2026-05-05 17:41 | 49.55702 | -95.86083 | 16226 ft | 333 kts | 295° |
| 2026-05-05 17:41 | 49.56616 | -95.89358 | 15773 ft | 333 kts | 295° |
| 2026-05-05 17:41 | 49.57518 | -95.92593 | 15319 ft | 333 kts | 295° |
| 2026-05-05 17:41 | 49.58430 | -95.95881 | 14872 ft | 333 kts | 295° |
| 2026-05-05 17:42 | 49.59334 | -95.99151 | 14440 ft | 331 kts | 295° |
| 2026-05-05 17:42 | 49.60230 | -96.02404 | 13983 ft | 329 kts | 295° |
| 2026-05-05 17:42 | 49.61121 | -96.05641 | 13491 ft | 327 kts | 295° |
| 2026-05-05 17:42 | 49.62006 | -96.08861 | 13024 ft | 325 kts | 295° |
| 2026-05-05 17:43 | 49.62881 | -96.12053 | 12604 ft | 321 kts | 295° |
| 2026-05-05 17:43 | 49.63745 | -96.15211 | 12177 ft | 318 kts | 295° |
| 2026-05-05 17:43 | 49.64591 | -96.18303 | 11750 ft | 316 kts | 295° |
| 2026-05-05 17:43 | 49.65440 | -96.21412 | 11306 ft | 313 kts | 295° |
| 2026-05-05 17:44 | 49.66283 | -96.24502 | 10941 ft | 309 kts | 295° |
| 2026-05-05 17:44 | 49.67100 | -96.27507 | 10794 ft | 298 kts | 295° |
| 2026-05-05 17:44 | 49.67887 | -96.30406 | 10678 ft | 288 kts | 295° |
| 2026-05-05 17:44 | 49.68647 | -96.33206 | 10517 ft | 278 kts | 295° |
| 2026-05-05 17:45 | 49.69384 | -96.35924 | 10411 ft | 270 kts | 295° |
| 2026-05-05 17:45 | 49.70100 | -96.38566 | 10190 ft | 266 kts | 295° |
| 2026-05-05 17:45 | 49.70817 | -96.41207 | 9873 ft | 266 kts | 295° |
| 2026-05-05 17:45 | 49.71521 | -96.43806 | 9550 ft | 265 kts | 295° |
| 2026-05-05 17:46 | 49.72229 | -96.46426 | 9228 ft | 263 kts | 295° |
| 2026-05-05 17:46 | 49.72933 | -96.49032 | 8896 ft | 262 kts | 295° |
| 2026-05-05 17:46 | 49.73610 | -96.51636 | 8561 ft | 261 kts | 292° |
| 2026-05-05 17:46 | 49.74004 | -96.54385 | 8228 ft | 263 kts | 281° |
| 2026-05-05 17:47 | 49.74220 | -96.57182 | 7898 ft | 262 kts | 279° |
| 2026-05-05 17:47 | 49.74413 | -96.59974 | 7579 ft | 260 kts | 279° |
| 2026-05-05 17:47 | 49.74605 | -96.62747 | 7243 ft | 259 kts | 279° |
| 2026-05-05 17:47 | 49.74797 | -96.65501 | 6956 ft | 257 kts | 280° |
| 2026-05-05 17:48 | 49.74987 | -96.68197 | 6644 ft | 255 kts | 279° |
| 2026-05-05 17:48 | 49.75180 | -96.70916 | 6318 ft | 254 kts | 279° |
| 2026-05-05 17:48 | 49.75372 | -96.73630 | 5962 ft | 253 kts | 280° |
| 2026-05-05 17:48 | 49.75561 | -96.76320 | 5626 ft | 251 kts | 279° |
| 2026-05-05 17:49 | 49.75749 | -96.78990 | 5272 ft | 249 kts | 279° |
| 2026-05-05 17:49 | 49.75935 | -96.81643 | 4935 ft | 247 kts | 279° |
| 2026-05-05 17:49 | 49.76117 | -96.84243 | 4613 ft | 245 kts | 279° |
| 2026-05-05 17:49 | 49.76296 | -96.86825 | 4426 ft | 237 kts | 279° |
| 2026-05-05 17:50 | 49.76468 | -96.89315 | 4240 ft | 230 kts | 279° |
| 2026-05-05 17:50 | 49.76637 | -96.91738 | 4067 ft | 223 kts | 280° |
| 2026-05-05 17:50 | 49.76798 | -96.94092 | 3916 ft | 216 kts | 279° |
| 2026-05-05 17:50 | 49.76955 | -96.96367 | 3762 ft | 210 kts | 279° |
| 2026-05-05 17:51 | 49.77106 | -96.98582 | 3615 ft | 203 kts | 279° |
| 2026-05-05 17:51 | 49.77254 | -97.00747 | 3489 ft | 203 kts | 281° |
| 2026-05-05 17:51 | 49.77401 | -97.02878 | 3422 ft | 197 kts | 280° |
| 2026-05-05 17:51 | 49.77551 | -97.04930 | 3253 ft | 190 kts | 281° |
| 2026-05-05 17:52 | 49.77931 | -97.06815 | 3040 ft | 179 kts | 302° |
| 2026-05-05 17:52 | 49.78756 | -97.08241 | 2958 ft | 175 kts | 321° |
| 2026-05-05 17:52 | 49.79685 | -97.09377 | 2587 ft | 169 kts | 322° |
| 2026-05-05 17:52 | 49.80583 | -97.10528 | 2154 ft | 163 kts | 319° |
| 2026-05-05 17:53 | 49.81369 | -97.11647 | 1992 ft | 141 kts | 319° |
| 2026-05-05 17:53 | 49.82035 | -97.12551 | 1967 ft | 117 kts | 320° |
| 2026-05-05 17:53 | 49.82630 | -97.13354 | 1984 ft | 114 kts | 320° |
| 2026-05-05 17:53 | 49.83225 | -97.14168 | 2032 ft | 117 kts | 320° |
| 2026-05-05 17:54 | 49.83833 | -97.15003 | 1998 ft | 117 kts | 319° |
| 2026-05-05 17:54 | 49.84444 | -97.15840 | 2026 ft | 118 kts | 319° |
| 2026-05-05 17:54 | 49.85057 | -97.16679 | 2006 ft | 117 kts | 319° |
| 2026-05-05 17:54 | 49.85676 | -97.17526 | 1903 ft | 119 kts | 320° |
| 2026-05-05 17:55 | 49.86294 | -97.18371 | 1719 ft | 117 kts | 319° |
| 2026-05-05 17:55 | 49.86904 | -97.19205 | 1507 ft | 116 kts | 319° |
| 2026-05-05 17:55 | 49.87510 | -97.20035 | 1358 ft | 116 kts | 319° |
| 2026-05-05 17:55 | 49.88119 | -97.20869 | 1191 ft | 117 kts | 319° |
| 2026-05-05 17:56 | 49.88716 | -97.21686 | 1035 ft | 115 kts | 319° |
| 2026-05-05 17:56 | 49.89309 | -97.22500 | 908 ft | 112 kts | 319° |
| 2026-05-05 17:56 | 49.89885 | -97.23291 | 792 ft | 105 kts | 319° |
| 2026-05-05 17:56 | 49.90302 | -97.23859 | 787 ft | 54 kts | 318° |
| 2026-05-05 17:57 | 49.90451 | -97.24061 | 789 ft | 2 kts | 319° |
| 2026-05-05 17:57 | 49.90462 | -97.24077 | 789 ft | 10 kts | 319° |
| 2026-05-05 17:57 | 49.90545 | -97.24188 | 790 ft | 19 kts | 319° |
| 2026-05-05 17:57 | 49.90640 | -97.24314 | 793 ft | 18 kts | 322° |
| 2026-05-05 17:58 | 49.90731 | -97.24279 | 792 ft | 16 kts | 61° |
| 2026-05-05 17:58 | 49.90763 | -97.24107 | 794 ft | 17 kts | 78° |
| 2026-05-05 17:58 | 49.90789 | -97.23914 | 792 ft | 21 kts | 78° |
| 2026-05-05 17:58 | 49.90821 | -97.23668 | 787 ft | 26 kts | 79° |
| 2026-05-05 17:59 | 49.90858 | -97.23380 | 786 ft | 28 kts | 78° |
| 2026-05-05 17:59 | 49.90885 | -97.23087 | 786 ft | 25 kts | 87° |
| 2026-05-05 17:59 | 49.90887 | -97.23036 | 786 ft | 1 kts | 86° |
| 2026-05-05 17:59 | 49.90890 | -97.22968 | 787 ft | 12 kts | 86° |
| 2026-05-05 18:00 | 49.90862 | -97.22806 | 788 ft | 19 kts | 121° |
| 2026-05-05 18:00 | 49.90799 | -97.22671 | 788 ft | 12 kts | 128° |
| 2026-05-05 18:00 | 49.90765 | -97.22570 | 787 ft | 12 kts | 103° |
| 2026-05-05 18:00 | 49.90755 | -97.22453 | 787 ft | 9 kts | 120° |
| 2026-05-05 18:01 | 49.90708 | -97.22420 | 787 ft | 8 kts | 171° |
| 2026-05-05 18:01 | 49.90686 | -97.22417 | 787 ft | 3 kts | 176° |
| 2026-05-05 18:01 | 49.90679 | -97.22417 | 787 ft | 0 kts | 178° |